sensor_id;sensor_type;location;lat;lon;timestamp;P1;durP1;ratioP1;P2;durP2;ratioP2
26696;SDS011;14312;52.614;13.496;2023-04-05T00:00:56;1.23;;;0.90;;
26696;SDS011;14312;52.614;13.496;2023-04-05T00:03:42;2.67;;;1.10;;
26696;SDS011;14312;52.614;13.496;2023-04-05T00:06:29;1.20;;;1.00;;
26696;SDS011;14312;52.614;13.496;2023-04-05T00:09:16;2.83;;;1.10;;
26696;SDS011;14312;52.614;13.496;2023-04-05T00:12:04;1.63;;;0.97;;
26696;SDS011;14312;52.614;13.496;2023-04-05T00:14:50;1.80;;;0.90;;
26696;SDS011;14312;52.614;13.496;2023-04-05T00:17:36;1.10;;;1.00;;
26696;SDS011;14312;52.614;13.496;2023-04-05T00:20:22;2.90;;;1.03;;
26696;SDS011;14312;52.614;13.496;2023-04-05T00:23:08;2.77;;;1.00;;
26696;SDS011;14312;52.614;13.496;2023-04-05T00:25:55;1.30;;;1.10;;
26696;SDS011;14312;52.614;13.496;2023-04-05T00:28:41;1.57;;;1.10;;
26696;SDS011;14312;52.614;13.496;2023-04-05T00:31:27;1.10;;;1.00;;
26696;SDS011;14312;52.614;13.496;2023-04-05T00:34:13;1.20;;;1.00;;
26696;SDS011;14312;52.614;13.496;2023-04-05T00:37:00;2.30;;;0.87;;
26696;SDS011;14312;52.614;13.496;2023-04-05T00:39:45;0.90;;;0.90;;
26696;SDS011;14312;52.614;13.496;2023-04-05T00:42:32;0.87;;;0.87;;
26696;SDS011;14312;52.614;13.496;2023-04-05T00:45:18;1.27;;;1.17;;
26696;SDS011;14312;52.614;13.496;2023-04-05T00:48:04;1.57;;;1.03;;
26696;SDS011;14312;52.614;13.496;2023-04-05T00:50:51;1.10;;;1.00;;
26696;SDS011;14312;52.614;13.496;2023-04-05T00:53:37;1.20;;;1.10;;
26696;SDS011;14312;52.614;13.496;2023-04-05T00:56:23;1.20;;;1.03;;
26696;SDS011;14312;52.614;13.496;2023-04-05T00:59:09;1.70;;;1.20;;
26696;SDS011;14312;52.614;13.496;2023-04-05T01:01:55;1.57;;;0.90;;
26696;SDS011;14312;52.614;13.496;2023-04-05T01:04:48;1.63;;;1.20;;
26696;SDS011;14312;52.614;13.496;2023-04-05T01:07:49;1.27;;;1.17;;
26696;SDS011;14312;52.614;13.496;2023-04-05T01:10:38;1.20;;;1.07;;
26696;SDS011;14312;52.614;13.496;2023-04-05T01:13:31;2.03;;;1.00;;
26696;SDS011;14312;52.614;13.496;2023-04-05T01:16:17;1.10;;;1.00;;
26696;SDS011;14312;52.614;13.496;2023-04-05T01:19:03;2.00;;;1.17;;
26696;SDS011;14312;52.614;13.496;2023-04-05T01:31:58;0.77;;;0.77;;
26696;SDS011;14312;52.614;13.496;2023-04-05T01:34:52;1.17;;;1.07;;
26696;SDS011;14312;52.614;13.496;2023-04-05T01:37:52;1.00;;;0.90;;
26696;SDS011;14312;52.614;13.496;2023-04-05T01:40:47;1.73;;;1.20;;
26696;SDS011;14312;52.614;13.496;2023-04-05T01:43:34;1.40;;;1.20;;
26696;SDS011;14312;52.614;13.496;2023-04-05T01:46:19;1.50;;;1.40;;
26696;SDS011;14312;52.614;13.496;2023-04-05T01:49:06;1.27;;;1.17;;
26696;SDS011;14312;52.614;13.496;2023-04-05T01:51:52;1.50;;;1.40;;
26696;SDS011;14312;52.614;13.496;2023-04-05T01:54:38;1.97;;;1.50;;
26696;SDS011;14312;52.614;13.496;2023-04-05T01:57:24;2.10;;;1.70;;
26696;SDS011;14312;52.614;13.496;2023-04-05T02:00:10;1.53;;;1.40;;
26696;SDS011;14312;52.614;13.496;2023-04-05T02:02:56;1.63;;;1.40;;
26696;SDS011;14312;52.614;13.496;2023-04-05T02:05:42;2.60;;;1.80;;
26696;SDS011;14312;52.614;13.496;2023-04-05T02:08:28;2.20;;;1.97;;
26696;SDS011;14312;52.614;13.496;2023-04-05T02:11:15;3.43;;;2.33;;
26696;SDS011;14312;52.614;13.496;2023-04-05T02:14:01;3.67;;;2.23;;
26696;SDS011;14312;52.614;13.496;2023-04-05T02:16:47;2.53;;;1.93;;
26696;SDS011;14312;52.614;13.496;2023-04-05T02:19:33;4.07;;;2.23;;
26696;SDS011;14312;52.614;13.496;2023-04-05T02:22:25;3.00;;;2.50;;
26696;SDS011;14312;52.614;13.496;2023-04-05T02:25:11;2.77;;;2.00;;
26696;SDS011;14312;52.614;13.496;2023-04-05T02:27:57;2.47;;;2.10;;
26696;SDS011;14312;52.614;13.496;2023-04-05T02:30:43;2.20;;;2.00;;
26696;SDS011;14312;52.614;13.496;2023-04-05T02:33:29;3.47;;;2.20;;
26696;SDS011;14312;52.614;13.496;2023-04-05T02:36:15;2.70;;;2.03;;
26696;SDS011;14312;52.614;13.496;2023-04-05T02:39:01;2.30;;;1.83;;
26696;SDS011;14312;52.614;13.496;2023-04-05T02:41:48;3.97;;;2.20;;
26696;SDS011;14312;52.614;13.496;2023-04-05T02:44:34;2.57;;;2.03;;
26696;SDS011;14312;52.614;13.496;2023-04-05T02:47:20;2.60;;;2.20;;
26696;SDS011;14312;52.614;13.496;2023-04-05T02:50:06;2.77;;;2.10;;
26696;SDS011;14312;52.614;13.496;2023-04-05T02:52:52;2.50;;;2.00;;
26696;SDS011;14312;52.614;13.496;2023-04-05T02:55:38;3.00;;;2.10;;
26696;SDS011;14312;52.614;13.496;2023-04-05T02:58:26;2.77;;;2.00;;
26696;SDS011;14312;52.614;13.496;2023-04-05T03:01:13;2.80;;;1.70;;
26696;SDS011;14312;52.614;13.496;2023-04-05T03:03:58;3.23;;;1.97;;
26696;SDS011;14312;52.614;13.496;2023-04-05T03:06:44;2.60;;;1.80;;
26696;SDS011;14312;52.614;13.496;2023-04-05T03:09:33;2.20;;;1.77;;
26696;SDS011;14312;52.614;13.496;2023-04-05T03:12:19;2.73;;;2.00;;
26696;SDS011;14312;52.614;13.496;2023-04-05T03:15:05;1.70;;;1.60;;
26696;SDS011;14312;52.614;13.496;2023-04-05T03:17:51;2.50;;;1.93;;
26696;SDS011;14312;52.614;13.496;2023-04-05T03:20:38;2.03;;;1.83;;
26696;SDS011;14312;52.614;13.496;2023-04-05T03:23:27;2.17;;;1.97;;
26696;SDS011;14312;52.614;13.496;2023-04-05T03:26:14;2.13;;;1.83;;
26696;SDS011;14312;52.614;13.496;2023-04-05T03:29:01;2.60;;;1.90;;
26696;SDS011;14312;52.614;13.496;2023-04-05T03:31:49;2.47;;;2.20;;
26696;SDS011;14312;52.614;13.496;2023-04-05T03:34:35;2.87;;;2.40;;
26696;SDS011;14312;52.614;13.496;2023-04-05T03:37:21;3.50;;;2.27;;
26696;SDS011;14312;52.614;13.496;2023-04-05T03:40:07;2.50;;;2.30;;
26696;SDS011;14312;52.614;13.496;2023-04-05T03:42:55;3.27;;;2.30;;
26696;SDS011;14312;52.614;13.496;2023-04-05T03:45:41;3.00;;;2.03;;
26696;SDS011;14312;52.614;13.496;2023-04-05T03:48:27;2.90;;;2.03;;
26696;SDS011;14312;52.614;13.496;2023-04-05T03:51:13;2.20;;;1.90;;
26696;SDS011;14312;52.614;13.496;2023-04-05T03:53:58;2.47;;;1.93;;
26696;SDS011;14312;52.614;13.496;2023-04-05T03:56:44;2.90;;;1.63;;
26696;SDS011;14312;52.614;13.496;2023-04-05T03:59:31;3.03;;;2.20;;
26696;SDS011;14312;52.614;13.496;2023-04-05T04:02:17;4.10;;;1.97;;
26696;SDS011;14312;52.614;13.496;2023-04-05T04:05:03;2.87;;;2.20;;
26696;SDS011;14312;52.614;13.496;2023-04-05T04:07:50;2.90;;;2.10;;
26696;SDS011;14312;52.614;13.496;2023-04-05T04:10:36;2.90;;;2.17;;
26696;SDS011;14312;52.614;13.496;2023-04-05T04:13:22;2.33;;;1.90;;
26696;SDS011;14312;52.614;13.496;2023-04-05T04:16:08;2.17;;;1.83;;
26696;SDS011;14312;52.614;13.496;2023-04-05T04:18:54;2.53;;;2.13;;
26696;SDS011;14312;52.614;13.496;2023-04-05T04:21:40;2.43;;;2.07;;
26696;SDS011;14312;52.614;13.496;2023-04-05T04:24:36;2.83;;;2.00;;
26696;SDS011;14312;52.614;13.496;2023-04-05T04:27:22;2.47;;;2.00;;
26696;SDS011;14312;52.614;13.496;2023-04-05T04:30:08;2.90;;;2.00;;
26696;SDS011;14312;52.614;13.496;2023-04-05T04:32:56;2.90;;;2.20;;
26696;SDS011;14312;52.614;13.496;2023-04-05T04:35:43;3.03;;;2.10;;
26696;SDS011;14312;52.614;13.496;2023-04-05T04:38:31;2.37;;;1.93;;
26696;SDS011;14312;52.614;13.496;2023-04-05T04:41:19;3.13;;;2.07;;
26696;SDS011;14312;52.614;13.496;2023-04-05T04:44:07;2.53;;;1.93;;
26696;SDS011;14312;52.614;13.496;2023-04-05T04:46:53;2.83;;;1.83;;
26696;SDS011;14312;52.614;13.496;2023-04-05T04:49:39;3.57;;;1.90;;
26696;SDS011;14312;52.614;13.496;2023-04-05T04:52:26;2.57;;;2.10;;
26696;SDS011;14312;52.614;13.496;2023-04-05T04:55:12;2.63;;;1.87;;
26696;SDS011;14312;52.614;13.496;2023-04-05T04:57:58;2.00;;;1.80;;
26696;SDS011;14312;52.614;13.496;2023-04-05T05:00:44;2.87;;;1.90;;
26696;SDS011;14312;52.614;13.496;2023-04-05T05:03:31;2.70;;;2.10;;
26696;SDS011;14312;52.614;13.496;2023-04-05T05:06:19;2.27;;;1.73;;
26696;SDS011;14312;52.614;13.496;2023-04-05T05:09:06;3.07;;;2.00;;
26696;SDS011;14312;52.614;13.496;2023-04-05T05:11:52;2.90;;;1.90;;
26696;SDS011;14312;52.614;13.496;2023-04-05T05:14:38;2.00;;;1.80;;
26696;SDS011;14312;52.614;13.496;2023-04-05T05:17:24;2.50;;;1.87;;
26696;SDS011;14312;52.614;13.496;2023-04-05T05:20:10;3.37;;;2.03;;
26696;SDS011;14312;52.614;13.496;2023-04-05T05:22:57;2.10;;;1.90;;
26696;SDS011;14312;52.614;13.496;2023-04-05T05:25:45;2.20;;;2.00;;
26696;SDS011;14312;52.614;13.496;2023-04-05T05:28:31;2.13;;;1.90;;
26696;SDS011;14312;52.614;13.496;2023-04-05T05:31:17;2.83;;;2.13;;
26696;SDS011;14312;52.614;13.496;2023-04-05T05:34:03;2.87;;;1.83;;
26696;SDS011;14312;52.614;13.496;2023-04-05T05:36:50;2.90;;;2.00;;
26696;SDS011;14312;52.614;13.496;2023-04-05T05:39:38;2.60;;;2.20;;
26696;SDS011;14312;52.614;13.496;2023-04-05T05:42:23;3.37;;;2.13;;
26696;SDS011;14312;52.614;13.496;2023-04-05T05:45:10;3.90;;;2.40;;
26696;SDS011;14312;52.614;13.496;2023-04-05T05:47:56;2.60;;;2.03;;
26696;SDS011;14312;52.614;13.496;2023-04-05T05:50:43;3.30;;;2.03;;
26696;SDS011;14312;52.614;13.496;2023-04-05T05:53:29;2.67;;;2.10;;
26696;SDS011;14312;52.614;13.496;2023-04-05T05:56:15;2.63;;;1.97;;
26696;SDS011;14312;52.614;13.496;2023-04-05T05:59:01;3.17;;;2.07;;
26696;SDS011;14312;52.614;13.496;2023-04-05T06:01:47;3.67;;;1.77;;
26696;SDS011;14312;52.614;13.496;2023-04-05T06:04:33;3.00;;;1.90;;
26696;SDS011;14312;52.614;13.496;2023-04-05T06:07:20;2.60;;;1.70;;
26696;SDS011;14312;52.614;13.496;2023-04-05T06:10:06;2.10;;;1.67;;
26696;SDS011;14312;52.614;13.496;2023-04-05T06:12:53;2.00;;;1.70;;
26696;SDS011;14312;52.614;13.496;2023-04-05T06:15:39;2.50;;;1.93;;
26696;SDS011;14312;52.614;13.496;2023-04-05T06:18:27;3.27;;;1.90;;
26696;SDS011;14312;52.614;13.496;2023-04-05T06:21:13;2.47;;;1.90;;
26696;SDS011;14312;52.614;13.496;2023-04-05T06:23:59;2.33;;;1.83;;
26696;SDS011;14312;52.614;13.496;2023-04-05T06:26:45;2.10;;;1.80;;
26696;SDS011;14312;52.614;13.496;2023-04-05T06:29:31;2.03;;;1.83;;
26696;SDS011;14312;52.614;13.496;2023-04-05T06:32:17;2.73;;;1.70;;
26696;SDS011;14312;52.614;13.496;2023-04-05T06:35:03;1.90;;;1.57;;
26696;SDS011;14312;52.614;13.496;2023-04-05T06:37:49;2.10;;;1.47;;
26696;SDS011;14312;52.614;13.496;2023-04-05T06:40:36;2.20;;;1.67;;
26696;SDS011;14312;52.614;13.496;2023-04-05T06:43:22;1.92;;;1.45;;
26696;SDS011;14312;52.614;13.496;2023-04-05T06:46:08;2.00;;;1.63;;
26696;SDS011;14312;52.614;13.496;2023-04-05T06:48:56;1.70;;;1.60;;
26696;SDS011;14312;52.614;13.496;2023-04-05T06:51:43;2.10;;;1.70;;
26696;SDS011;14312;52.614;13.496;2023-04-05T06:54:29;3.33;;;1.67;;
26696;SDS011;14312;52.614;13.496;2023-04-05T06:57:15;2.95;;;1.98;;
26696;SDS011;14312;52.614;13.496;2023-04-05T07:00:01;2.33;;;2.00;;
26696;SDS011;14312;52.614;13.496;2023-04-05T07:02:48;2.88;;;1.77;;
26696;SDS011;14312;52.614;13.496;2023-04-05T07:05:34;2.40;;;1.73;;
26696;SDS011;14312;52.614;13.496;2023-04-05T07:08:20;2.72;;;2.00;;
26696;SDS011;14312;52.614;13.496;2023-04-05T07:11:06;2.28;;;1.95;;
26696;SDS011;14312;52.614;13.496;2023-04-05T07:13:52;3.22;;;1.80;;
26696;SDS011;14312;52.614;13.496;2023-04-05T07:16:38;2.60;;;1.83;;
26696;SDS011;14312;52.614;13.496;2023-04-05T07:19:24;2.40;;;1.90;;
26696;SDS011;14312;52.614;13.496;2023-04-05T07:22:10;3.07;;;1.80;;
26696;SDS011;14312;52.614;13.496;2023-04-05T07:24:56;2.45;;;1.70;;
26696;SDS011;14312;52.614;13.496;2023-04-05T07:27:42;2.40;;;2.17;;
26696;SDS011;14312;52.614;13.496;2023-04-05T07:30:29;3.00;;;2.58;;
26696;SDS011;14312;52.614;13.496;2023-04-05T07:33:16;2.53;;;2.10;;
26696;SDS011;14312;52.614;13.496;2023-04-05T07:36:02;2.80;;;1.60;;
26696;SDS011;14312;52.614;13.496;2023-04-05T07:38:48;2.40;;;2.00;;
26696;SDS011;14312;52.614;13.496;2023-04-05T07:41:34;2.92;;;1.75;;
26696;SDS011;14312;52.614;13.496;2023-04-05T07:44:21;2.42;;;1.90;;
26696;SDS011;14312;52.614;13.496;2023-04-05T07:47:07;1.90;;;1.70;;
26696;SDS011;14312;52.614;13.496;2023-04-05T07:49:53;2.53;;;2.08;;
26696;SDS011;14312;52.614;13.496;2023-04-05T07:52:40;1.73;;;1.60;;
26696;SDS011;14312;52.614;13.496;2023-04-05T07:55:26;2.78;;;1.90;;
26696;SDS011;14312;52.614;13.496;2023-04-05T07:58:12;3.85;;;2.28;;
26696;SDS011;14312;52.614;13.496;2023-04-05T08:00:59;2.72;;;2.25;;
26696;SDS011;14312;52.614;13.496;2023-04-05T08:03:46;2.17;;;1.98;;
26696;SDS011;14312;52.614;13.496;2023-04-05T08:06:32;3.80;;;2.15;;
26696;SDS011;14312;52.614;13.496;2023-04-05T08:09:18;4.13;;;2.28;;
26696;SDS011;14312;52.614;13.496;2023-04-05T08:12:04;2.55;;;2.30;;
26696;SDS011;14312;52.614;13.496;2023-04-05T08:14:51;2.50;;;2.00;;
26696;SDS011;14312;52.614;13.496;2023-04-05T08:17:37;2.30;;;2.10;;
26696;SDS011;14312;52.614;13.496;2023-04-05T08:20:23;2.30;;;2.10;;
26696;SDS011;14312;52.614;13.496;2023-04-05T08:23:09;2.38;;;2.00;;
26696;SDS011;14312;52.614;13.496;2023-04-05T08:25:55;2.20;;;1.88;;
26696;SDS011;14312;52.614;13.496;2023-04-05T08:28:41;1.98;;;1.83;;
26696;SDS011;14312;52.614;13.496;2023-04-05T08:31:27;2.30;;;2.08;;
26696;SDS011;14312;52.614;13.496;2023-04-05T08:34:13;2.35;;;2.03;;
26696;SDS011;14312;52.614;13.496;2023-04-05T08:36:59;2.20;;;2.00;;
26696;SDS011;14312;52.614;13.496;2023-04-05T08:39:46;2.88;;;2.00;;
26696;SDS011;14312;52.614;13.496;2023-04-05T08:42:35;1.98;;;1.77;;
26696;SDS011;14312;52.614;13.496;2023-04-05T08:45:26;1.92;;;1.75;;
26696;SDS011;14312;52.614;13.496;2023-04-05T08:48:14;2.15;;;1.90;;
26696;SDS011;14312;52.614;13.496;2023-04-05T08:51:01;2.33;;;1.65;;
26696;SDS011;14312;52.614;13.496;2023-04-05T08:53:47;2.30;;;1.65;;
26696;SDS011;14312;52.614;13.496;2023-04-05T08:56:34;2.45;;;1.60;;
26696;SDS011;14312;52.614;13.496;2023-04-05T08:59:20;1.33;;;1.23;;
26696;SDS011;14312;52.614;13.496;2023-04-05T09:02:11;1.50;;;1.40;;
26696;SDS011;14312;52.614;13.496;2023-04-05T09:05:03;2.28;;;1.45;;
26696;SDS011;14312;52.614;13.496;2023-04-05T09:07:53;2.35;;;1.30;;
26696;SDS011;14312;52.614;13.496;2023-04-05T09:10:43;1.52;;;1.05;;
26696;SDS011;14312;52.614;13.496;2023-04-05T09:13:29;1.20;;;1.10;;
26696;SDS011;14312;52.614;13.496;2023-04-05T09:16:16;1.40;;;1.30;;
26696;SDS011;14312;52.614;13.496;2023-04-05T09:19:02;1.20;;;1.10;;
26696;SDS011;14312;52.614;13.496;2023-04-05T09:22:01;1.52;;;1.02;;
26696;SDS011;14312;52.614;13.496;2023-04-05T09:24:51;1.13;;;1.02;;
26696;SDS011;14312;52.614;13.496;2023-04-05T09:27:58;1.33;;;1.13;;
26696;SDS011;14312;52.614;13.496;2023-04-05T09:30:44;2.00;;;1.20;;
26696;SDS011;14312;52.614;13.496;2023-04-05T09:33:31;1.55;;;1.25;;
26696;SDS011;14312;52.614;13.496;2023-04-05T09:36:18;1.10;;;1.00;;
26696;SDS011;14312;52.614;13.496;2023-04-05T09:39:06;1.13;;;1.00;;
26696;SDS011;14312;52.614;13.496;2023-04-05T09:42:06;2.15;;;1.05;;
26696;SDS011;14312;52.614;13.496;2023-04-05T09:44:56;1.40;;;1.27;;
26696;SDS011;14312;52.614;13.496;2023-04-05T09:47:55;1.67;;;1.20;;
26696;SDS011;14312;52.614;13.496;2023-04-05T09:50:42;1.50;;;1.25;;
26696;SDS011;14312;52.614;13.496;2023-04-05T09:53:28;1.38;;;1.20;;
26696;SDS011;14312;52.614;13.496;2023-04-05T09:56:14;1.30;;;1.20;;
26696;SDS011;14312;52.614;13.496;2023-04-05T09:59:00;1.40;;;1.30;;
26696;SDS011;14312;52.614;13.496;2023-04-05T10:01:50;1.38;;;1.27;;
26696;SDS011;14312;52.614;13.496;2023-04-05T10:04:44;2.17;;;1.35;;
26696;SDS011;14312;52.614;13.496;2023-04-05T10:07:31;1.38;;;1.27;;
26696;SDS011;14312;52.614;13.496;2023-04-05T10:10:18;1.55;;;1.40;;
26696;SDS011;14312;52.614;13.496;2023-04-05T10:13:07;1.38;;;1.20;;
26696;SDS011;14312;52.614;13.496;2023-04-05T10:15:53;2.28;;;1.48;;
26696;SDS011;14312;52.614;13.496;2023-04-05T10:18:47;1.50;;;1.40;;
26696;SDS011;14312;52.614;13.496;2023-04-05T10:21:35;2.42;;;1.20;;
26696;SDS011;14312;52.614;13.496;2023-04-05T10:25:09;1.40;;;1.30;;
26696;SDS011;14312;52.614;13.496;2023-04-05T10:27:46;1.60;;;1.50;;
26696;SDS011;14312;52.614;13.496;2023-04-05T10:30:39;1.83;;;1.55;;
26696;SDS011;14312;52.614;13.496;2023-04-05T10:33:38;3.05;;;1.30;;
26696;SDS011;14312;52.614;13.496;2023-04-05T10:37:14;1.85;;;1.40;;
26696;SDS011;14312;52.614;13.496;2023-04-05T10:39:47;1.73;;;1.30;;
26696;SDS011;14312;52.614;13.496;2023-04-05T10:42:39;1.92;;;1.40;;
26696;SDS011;14312;52.614;13.496;2023-04-05T10:45:28;1.50;;;1.40;;
26696;SDS011;14312;52.614;13.496;2023-04-05T10:51:05;1.42;;;1.27;;
26696;SDS011;14312;52.614;13.496;2023-04-05T10:53:52;1.90;;;1.60;;
26696;SDS011;14312;52.614;13.496;2023-04-05T10:56:40;2.65;;;1.50;;
26696;SDS011;14312;52.614;13.496;2023-04-05T10:59:26;1.48;;;1.33;;
26696;SDS011;14312;52.614;13.496;2023-04-05T11:02:14;1.58;;;1.42;;
26696;SDS011;14312;52.614;13.496;2023-04-05T11:05:04;1.30;;;1.20;;
26696;SDS011;14312;52.614;13.496;2023-04-05T11:07:51;1.90;;;1.50;;
26696;SDS011;14312;52.614;13.496;2023-04-05T11:10:40;1.65;;;1.40;;
26696;SDS011;14312;52.614;13.496;2023-04-05T11:16:38;1.80;;;1.30;;
26696;SDS011;14312;52.614;13.496;2023-04-05T11:22:29;2.88;;;1.50;;
26696;SDS011;14312;52.614;13.496;2023-04-05T11:25:20;1.50;;;1.40;;
26696;SDS011;14312;52.614;13.496;2023-04-05T11:28:07;1.45;;;1.35;;
26696;SDS011;14312;52.614;13.496;2023-04-05T11:30:54;2.75;;;2.05;;
26696;SDS011;14312;52.614;13.496;2023-04-05T11:36:30;2.17;;;1.95;;
26696;SDS011;14312;52.614;13.496;2023-04-05T11:39:32;2.17;;;1.60;;
26696;SDS011;14312;52.614;13.496;2023-04-05T11:42:18;2.05;;;1.80;;
26696;SDS011;14312;52.614;13.496;2023-04-05T11:45:05;3.33;;;1.75;;
26696;SDS011;14312;52.614;13.496;2023-04-05T11:47:53;1.80;;;1.70;;
26696;SDS011;14312;52.614;13.496;2023-04-05T11:50:39;1.83;;;1.63;;
26696;SDS011;14312;52.614;13.496;2023-04-05T11:53:30;2.40;;;1.77;;
26696;SDS011;14312;52.614;13.496;2023-04-05T11:56:16;1.80;;;1.60;;
26696;SDS011;14312;52.614;13.496;2023-04-05T11:59:02;1.60;;;1.50;;
26696;SDS011;14312;52.614;13.496;2023-04-05T12:01:56;2.10;;;1.60;;
26696;SDS011;14312;52.614;13.496;2023-04-05T12:04:42;2.30;;;1.80;;
26696;SDS011;14312;52.614;13.496;2023-04-05T12:07:28;1.60;;;1.50;;
26696;SDS011;14312;52.614;13.496;2023-04-05T12:10:17;3.28;;;2.03;;
26696;SDS011;14312;52.614;13.496;2023-04-05T12:13:03;3.25;;;2.10;;
26696;SDS011;14312;52.614;13.496;2023-04-05T12:15:49;3.03;;;2.10;;
26696;SDS011;14312;52.614;13.496;2023-04-05T12:18:36;2.15;;;1.90;;
26696;SDS011;14312;52.614;13.496;2023-04-05T12:21:22;2.65;;;1.70;;
26696;SDS011;14312;52.614;13.496;2023-04-05T12:24:09;1.90;;;1.60;;
26696;SDS011;14312;52.614;13.496;2023-04-05T12:26:55;2.00;;;1.73;;
26696;SDS011;14312;52.614;13.496;2023-04-05T12:29:41;2.03;;;1.60;;
26696;SDS011;14312;52.614;13.496;2023-04-05T12:32:59;1.70;;;1.45;;
26696;SDS011;14312;52.614;13.496;2023-04-05T12:35:53;2.85;;;1.63;;
26696;SDS011;14312;52.614;13.496;2023-04-05T12:38:39;1.77;;;1.67;;
26696;SDS011;14312;52.614;13.496;2023-04-05T12:41:28;2.00;;;1.60;;
26696;SDS011;14312;52.614;13.496;2023-04-05T12:44:15;2.22;;;1.80;;
26696;SDS011;14312;52.614;13.496;2023-04-05T12:47:13;1.70;;;1.50;;
26696;SDS011;14312;52.614;13.496;2023-04-05T12:50:13;1.95;;;1.75;;
26696;SDS011;14312;52.614;13.496;2023-04-05T12:53:04;2.70;;;1.88;;
26696;SDS011;14312;52.614;13.496;2023-04-05T12:55:54;3.08;;;2.00;;
26696;SDS011;14312;52.614;13.496;2023-04-05T12:58:41;2.15;;;1.80;;
26696;SDS011;14312;52.614;13.496;2023-04-05T13:01:27;2.55;;;1.90;;
26696;SDS011;14312;52.614;13.496;2023-04-05T13:04:13;2.10;;;1.73;;
26696;SDS011;14312;52.614;13.496;2023-04-05T13:06:59;2.40;;;1.70;;
26696;SDS011;14312;52.614;13.496;2023-04-05T13:09:45;1.90;;;1.70;;
26696;SDS011;14312;52.614;13.496;2023-04-05T13:12:31;2.30;;;1.85;;
26696;SDS011;14312;52.614;13.496;2023-04-05T13:15:17;1.88;;;1.40;;
26696;SDS011;14312;52.614;13.496;2023-04-05T13:18:03;1.67;;;1.40;;
26696;SDS011;14312;52.614;13.496;2023-04-05T13:20:50;2.10;;;1.40;;
26696;SDS011;14312;52.614;13.496;2023-04-05T13:23:36;1.60;;;1.50;;
26696;SDS011;14312;52.614;13.496;2023-04-05T13:26:23;1.75;;;1.65;;
26696;SDS011;14312;52.614;13.496;2023-04-05T13:29:09;2.55;;;1.67;;
26696;SDS011;14312;52.614;13.496;2023-04-05T13:31:55;1.65;;;1.38;;
26696;SDS011;14312;52.614;13.496;2023-04-05T13:34:41;1.67;;;1.55;;
26696;SDS011;14312;52.614;13.496;2023-04-05T13:37:27;1.30;;;1.13;;
26696;SDS011;14312;52.614;13.496;2023-04-05T13:40:13;1.98;;;1.75;;
26696;SDS011;14312;52.614;13.496;2023-04-05T13:42:59;2.28;;;1.60;;
26696;SDS011;14312;52.614;13.496;2023-04-05T13:45:45;1.55;;;1.45;;
26696;SDS011;14312;52.614;13.496;2023-04-05T13:48:31;3.10;;;1.77;;
26696;SDS011;14312;52.614;13.496;2023-04-05T13:51:17;2.38;;;1.60;;
26696;SDS011;14312;52.614;13.496;2023-04-05T13:54:04;1.90;;;1.60;;
26696;SDS011;14312;52.614;13.496;2023-04-05T13:56:50;1.60;;;1.50;;
26696;SDS011;14312;52.614;13.496;2023-04-05T13:59:36;2.13;;;1.65;;
26696;SDS011;14312;52.614;13.496;2023-04-05T14:02:22;1.70;;;1.60;;
26696;SDS011;14312;52.614;13.496;2023-04-05T14:05:10;2.65;;;1.45;;
26696;SDS011;14312;52.614;13.496;2023-04-05T14:07:56;1.85;;;1.38;;
26696;SDS011;14312;52.614;13.496;2023-04-05T14:10:42;2.05;;;1.65;;
26696;SDS011;14312;52.614;13.496;2023-04-05T14:13:28;2.03;;;1.77;;
26696;SDS011;14312;52.614;13.496;2023-04-05T14:16:14;1.63;;;1.52;;
26696;SDS011;14312;52.614;13.496;2023-04-05T14:19:00;1.70;;;1.58;;
26696;SDS011;14312;52.614;13.496;2023-04-05T14:21:47;1.77;;;1.50;;
26696;SDS011;14312;52.614;13.496;2023-04-05T14:24:35;1.60;;;1.45;;
26696;SDS011;14312;52.614;13.496;2023-04-05T14:27:21;1.63;;;1.52;;
26696;SDS011;14312;52.614;13.496;2023-04-05T14:30:11;1.67;;;1.58;;
26696;SDS011;14312;52.614;13.496;2023-04-05T14:32:57;1.60;;;1.42;;
26696;SDS011;14312;52.614;13.496;2023-04-05T14:35:43;1.83;;;1.55;;
26696;SDS011;14312;52.614;13.496;2023-04-05T14:38:29;1.80;;;1.58;;
26696;SDS011;14312;52.614;13.496;2023-04-05T14:41:15;2.17;;;1.63;;
26696;SDS011;14312;52.614;13.496;2023-04-05T14:44:01;2.30;;;1.65;;
26696;SDS011;14312;52.614;13.496;2023-04-05T14:46:47;1.30;;;1.20;;
26696;SDS011;14312;52.614;13.496;2023-04-05T14:49:35;1.55;;;1.40;;
26696;SDS011;14312;52.614;13.496;2023-04-05T14:52:21;2.03;;;1.33;;
26696;SDS011;14312;52.614;13.496;2023-04-05T14:55:07;1.60;;;1.50;;
26696;SDS011;14312;52.614;13.496;2023-04-05T14:57:58;1.50;;;1.40;;
26696;SDS011;14312;52.614;13.496;2023-04-05T15:00:44;2.80;;;1.65;;
26696;SDS011;14312;52.614;13.496;2023-04-05T15:03:34;1.63;;;1.40;;
26696;SDS011;14312;52.614;13.496;2023-04-05T15:06:20;1.90;;;1.70;;
26696;SDS011;14312;52.614;13.496;2023-04-05T15:09:06;1.20;;;1.10;;
26696;SDS011;14312;52.614;13.496;2023-04-05T15:11:52;1.60;;;1.50;;
26696;SDS011;14312;52.614;13.496;2023-04-05T15:14:38;1.55;;;1.40;;
26696;SDS011;14312;52.614;13.496;2023-04-05T15:17:24;1.88;;;1.60;;
26696;SDS011;14312;52.614;13.496;2023-04-05T15:20:10;1.40;;;1.27;;
26696;SDS011;14312;52.614;13.496;2023-04-05T15:22:56;2.67;;;1.48;;
26696;SDS011;14312;52.614;13.496;2023-04-05T15:25:42;2.63;;;1.25;;
26696;SDS011;14312;52.614;13.496;2023-04-05T15:28:28;2.00;;;1.33;;
26696;SDS011;14312;52.614;13.496;2023-04-05T15:31:15;1.30;;;1.20;;
26696;SDS011;14312;52.614;13.496;2023-04-05T15:34:01;1.65;;;1.33;;
26696;SDS011;14312;52.614;13.496;2023-04-05T15:36:47;2.38;;;1.50;;
26696;SDS011;14312;52.614;13.496;2023-04-05T15:39:33;1.65;;;1.40;;
26696;SDS011;14312;52.614;13.496;2023-04-05T15:42:21;2.38;;;1.80;;
26696;SDS011;14312;52.614;13.496;2023-04-05T15:45:07;2.58;;;2.20;;
26696;SDS011;14312;52.614;13.496;2023-04-05T15:47:54;2.10;;;1.90;;
26696;SDS011;14312;52.614;13.496;2023-04-05T15:50:40;2.30;;;1.95;;
26696;SDS011;14312;52.614;13.496;2023-04-05T15:53:27;3.00;;;2.10;;
26696;SDS011;14312;52.614;13.496;2023-04-05T15:56:13;2.08;;;1.77;;
26696;SDS011;14312;52.614;13.496;2023-04-05T15:58:59;1.70;;;1.55;;
26696;SDS011;14312;52.614;13.496;2023-04-05T16:01:45;2.20;;;2.00;;
26696;SDS011;14312;52.614;13.496;2023-04-05T16:04:31;2.25;;;2.00;;
26696;SDS011;14312;52.614;13.496;2023-04-05T16:07:17;2.92;;;1.85;;
26696;SDS011;14312;52.614;13.496;2023-04-05T16:10:03;3.00;;;2.10;;
26696;SDS011;14312;52.614;13.496;2023-04-05T16:12:51;2.15;;;1.95;;
26696;SDS011;14312;52.614;13.496;2023-04-05T16:15:38;2.00;;;1.73;;
26696;SDS011;14312;52.614;13.496;2023-04-05T16:18:24;2.30;;;2.10;;
26696;SDS011;14312;52.614;13.496;2023-04-05T16:21:12;1.70;;;1.60;;
26696;SDS011;14312;52.614;13.496;2023-04-05T16:24:00;1.98;;;1.88;;
26696;SDS011;14312;52.614;13.496;2023-04-05T16:26:48;2.15;;;1.95;;
26696;SDS011;14312;52.614;13.496;2023-04-05T16:29:34;2.45;;;2.20;;
26696;SDS011;14312;52.614;13.496;2023-04-05T16:32:20;3.47;;;1.90;;
26696;SDS011;14312;52.614;13.496;2023-04-05T16:35:06;2.25;;;2.00;;
26696;SDS011;14312;52.614;13.496;2023-04-05T16:37:52;2.50;;;2.03;;
26696;SDS011;14312;52.614;13.496;2023-04-05T16:40:38;1.77;;;1.63;;
26696;SDS011;14312;52.614;13.496;2023-04-05T16:43:24;2.17;;;1.90;;
26696;SDS011;14312;52.614;13.496;2023-04-05T16:46:10;3.10;;;2.53;;
26696;SDS011;14312;52.614;13.496;2023-04-05T16:48:57;1.90;;;1.80;;
26696;SDS011;14312;52.614;13.496;2023-04-05T16:51:44;2.42;;;1.90;;
26696;SDS011;14312;52.614;13.496;2023-04-05T16:54:30;1.92;;;1.70;;